Time;durP1;ratioP1;P1;durP2;ratioP2;P2;SDS_P1;SDS_P2;PMS_P1;PMS_P2;Temp;Humidity;BMP_temperature;BMP_pressure;BME280_temperature;BME280_humidity;BME280_pressure;Samples;Min_cycle;Max_cycle;Signal;HPM_P1;HPM_P2
2021/06/17 00:02:23;;;;;;;16.65;8.15;;;;;;;16.87;80.57;100638.78;4914741;29;20056;-81
2021/06/17 00:04:49;;;;;;;15.48;6.63;;;;;;;16.85;80.35;100637.19;4915116;29;20045;-80
2021/06/17 00:08:06;;;;;;;12.98;7.28;;;;;;;17.10;80.99;100663.66;4913586;23;20188;-80
2021/06/17 00:10:51;;;;;;;16.00;7.00;;;;;;;17.07;81.65;100658.56;4915155;29;20053;-80
2021/06/17 00:13:26;;;;;;;15.95;7.18;;;;;;;17.00;80.80;100641.47;4911955;29;20048;-81
2021/06/17 00:16:08;;;;;;;14.13;7.25;;;;;;;17.13;81.44;100655.53;4895237;29;20045;-81
2021/06/17 00:19:03;;;;;;;13.73;7.70;;;;;;;17.10;81.41;100653.09;4943030;23;20032;-80
2021/06/17 00:22:39;;;;;;;13.57;7.30;;;;;;;17.10;81.26;100641.69;4951420;29;20087;-80
2021/06/17 00:25:15;;;;;;;13.95;7.28;;;;;;;16.94;81.42;100613.72;4953014;29;20042;-80
2021/06/17 00:28:10;;;;;;;14.70;7.43;;;;;;;17.09;82.38;100632.94;4952805;29;20531;-81
2021/06/17 00:34:22;;;;;;;12.68;7.50;;;;;;;17.06;81.96;100646.31;4954382;29;20480;-80
2021/06/17 00:37:09;;;;;;;14.55;8.23;;;;;;;16.95;82.63;100623.34;4947166;29;20052;-80
2021/06/17 00:40:01;;;;;;;14.60;7.65;;;;;;;17.12;81.51;100640.69;4945654;29;20083;-81
2021/06/17 00:42:46;;;;;;;14.57;7.90;;;;;;;16.96;80.79;100614.44;4936674;29;20051;-81
2021/06/17 00:45:28;;;;;;;13.30;6.68;;;;;;;16.92;81.26;100605.06;4916765;29;20040;-79
2021/06/17 00:47:55;;;;;;;12.23;6.70;;;;;;;17.20;81.25;100636.66;4947961;29;20058;-80
2021/06/17 00:50:47;;;;;;;12.52;7.35;;;;;;;17.00;81.60;100622.19;4932142;29;20052;-80
2021/06/17 00:53:21;;;;;;;14.13;6.68;;;;;;;16.95;81.00;100610.16;4952103;29;20438;-79
2021/06/17 00:55:50;;;;;;;13.13;6.78;;;;;;;17.08;81.24;100625.97;4959046;28;20094;-80
2021/06/17 00:58:21;;;;;;;13.27;7.30;;;;;;;17.09;81.40;100627.69;4961632;28;20044;-80
2021/06/17 01:00:49;;;;;;;13.73;6.90;;;;;;;16.82;81.35;100598.69;4941136;28;20072;-80
2021/06/17 01:03:23;;;;;;;12.43;6.82;;;;;;;16.93;81.87;100619.09;4948770;29;20047;-79
2021/06/17 01:05:56;;;;;;;14.10;6.47;;;;;;;16.95;81.88;100610.16;4932768;29;20051;-79
2021/06/17 01:08:26;;;;;;;12.57;7.07;;;;;;;16.96;82.61;100608.34;4909734;29;20052;-79
2021/06/17 01:11:32;;;;;;;10.48;5.78;;;;;;;16.81;82.68;100605.75;4930581;29;20071;-80
2021/06/17 01:14:29;;;;;;;14.52;7.57;;;;;;;16.86;83.18;100625.69;4953694;29;20099;-79
2021/06/17 01:17:16;;;;;;;14.15;7.07;;;;;;;16.92;82.33;100634.06;4939724;29;20052;-79
2021/06/17 01:20:18;;;;;;;12.65;7.30;;;;;;;17.05;82.32;100635.88;5021394;23;20059;-81
2021/06/17 01:23:29;;;;;;;13.73;7.68;;;;;;;17.02;82.96;100650.13;4958683;23;20047;-81
2021/06/17 01:27:37;;;;;;;14.43;6.75;;;;;;;17.13;82.91;100644.16;4950518;23;20181;-78
2021/06/17 01:30:17;;;;;;;13.70;7.28;;;;;;;17.05;83.21;100628.84;4846520;29;20563;-78
2021/06/17 01:33:07;;;;;;;16.13;8.02;;;;;;;17.06;81.87;100627.03;4891836;29;20063;-79
2021/06/17 01:35:40;;;;;;;13.70;7.40;;;;;;;16.88;82.16;100610.59;4909402;29;20048;-79
2021/06/17 01:38:22;;;;;;;13.25;7.80;;;;;;;16.40;82.35;100539.94;4939322;23;20048;-79
2021/06/17 01:40:56;;;;;;;13.32;7.75;;;;;;;16.89;83.42;100626.31;4921085;29;20052;-80
2021/06/17 01:43:35;;;;;;;14.90;7.75;;;;;;;16.91;83.93;100618.31;4897370;29;20029;-79
2021/06/17 01:46:07;;;;;;;13.00;8.02;;;;;;;17.06;82.74;100613.84;4927190;29;20075;-79
2021/06/17 01:48:35;;;;;;;11.52;7.65;;;;;;;16.71;81.18;100551.09;4926397;29;20056;-78
2021/06/17 01:51:01;;;;;;;12.10;7.88;;;;;;;16.65;82.29;100536.56;4919790;29;20089;-79
2021/06/17 01:53:28;;;;;;;12.43;7.53;;;;;;;17.19;82.50;100608.59;4934915;29;20052;-79
2021/06/17 01:55:59;;;;;;;13.95;7.65;;;;;;;17.12;82.61;100616.06;4901496;29;20044;-79
2021/06/17 01:58:28;;;;;;;10.77;6.90;;;;;;;17.02;82.13;100613.22;4900987;29;20044;-79
2021/06/17 02:00:55;;;;;;;13.73;8.60;;;;;;;16.92;82.88;100610.34;4903321;29;20488;-79
2021/06/17 02:03:24;;;;;;;13.07;7.35;;;;;;;16.96;81.52;100601.28;4911341;29;20080;-80
2021/06/17 02:05:51;;;;;;;12.48;8.07;;;;;;;16.88;82.23;100585.09;4908115;29;20056;-79
2021/06/17 02:08:19;;;;;;;14.40;8.70;;;;;;;17.08;83.10;100611.97;4918496;29;20481;-79
2021/06/17 02:10:46;;;;;;;13.60;9.30;;;;;;;16.90;82.78;100595.53;4917451;29;20052;-80
2021/06/17 02:13:15;;;;;;;14.70;8.90;;;;;;;17.01;82.82;100605.41;4917219;29;20051;-79
2021/06/17 02:15:44;;;;;;;15.98;9.52;;;;;;;17.18;82.22;100612.19;4914680;29;20119;-79
2021/06/17 02:18:12;;;;;;;14.15;8.63;;;;;;;17.07;82.04;100611.09;4903222;29;20083;-80
2021/06/17 02:20:40;;;;;;;12.23;9.70;;;;;;;17.11;82.00;100611.75;4912315;29;20055;-80
2021/06/17 02:23:12;;;;;;;11.90;9.23;;;;;;;17.19;82.01;100617.34;4910298;29;20040;-80
2021/06/17 02:25:40;;;;;;;14.43;11.70;;;;;;;17.12;81.46;100598.47;4906968;29;20043;-79
2021/06/17 02:28:13;;;;;;;16.33;12.73;;;;;;;16.98;81.02;100574.81;4906239;29;20045;-80
2021/06/17 02:30:40;;;;;;;16.75;12.52;;;;;;;16.95;81.81;100581.16;4911638;29;20126;-80
2021/06/17 02:33:10;;;;;;;14.73;12.20;;;;;;;17.04;81.15;100608.69;4916573;29;20052;-81
2021/06/17 02:35:38;;;;;;;16.42;13.27;;;;;;;16.86;81.76;100609.88;4916940;29;20048;-80
2021/06/17 02:38:07;;;;;;;16.00;13.02;;;;;;;16.92;81.49;100631.44;4903253;29;20152;-80
2021/06/17 02:40:38;;;;;;;16.13;12.20;;;;;;;16.95;83.26;100649.69;4906868;29;20056;-80
2021/06/17 02:43:14;;;;;;;17.60;13.48;;;;;;;16.90;83.07;100651.75;4917035;29;20052;-79
2021/06/17 02:45:41;;;;;;;19.13;14.77;;;;;;;16.51;83.30;100587.50;4915238;29;20063;-80
2021/06/17 02:48:08;;;;;;;18.13;14.00;;;;;;;16.95;83.59;100648.84;4907452;29;20048;-81
2021/06/17 02:50:35;;;;;;;17.52;14.25;;;;;;;17.05;83.21;100638.53;4915988;29;20044;-82
2021/06/17 02:53:01;;;;;;;19.35;15.20;;;;;;;17.01;82.57;100632.63;4908491;29;20058;-81
2021/06/17 02:55:28;;;;;;;18.90;16.02;;;;;;;17.00;82.67;100636.19;4900089;29;20049;-81
2021/06/17 02:58:13;;;;;;;23.08;17.33;;;;;;;16.92;82.87;100643.78;4917842;29;20056;-81
2021/06/17 03:00:55;;;;;;;21.15;16.25;;;;;;;16.81;82.41;100631.28;4917468;29;20048;-81
2021/06/17 03:03:47;;;;;;;21.10;17.00;;;;;;;16.78;82.48;100631.47;4911212;29;20041;-81
2021/06/17 03:06:27;;;;;;;19.55;15.38;;;;;;;16.79;82.49;100638.44;4918287;29;20509;-81
2021/06/17 03:08:58;;;;;;;22.02;16.25;;;;;;;16.86;82.93;100633.63;4922872;29;20043;-80
2021/06/17 03:11:26;;;;;;;19.73;16.98;;;;;;;16.86;82.52;100642.34;4932631;29;20065;-80
2021/06/17 03:13:59;;;;;;;22.73;16.60;;;;;;;16.78;82.29;100626.19;4921500;29;20036;-80
2021/06/17 03:16:31;;;;;;;21.27;16.42;;;;;;;16.55;82.58;100589.03;4921567;29;20039;-80
2021/06/17 03:19:00;;;;;;;23.55;16.63;;;;;;;16.44;82.48;100581.81;4921944;29;20382;-81
2021/06/17 03:21:33;;;;;;;22.48;16.90;;;;;;;16.84;82.11;100652.16;4906025;29;20055;-81
2021/06/17 03:24:02;;;;;;;24.33;16.10;;;;;;;16.75;82.42;100652.75;4919161;29;20059;-81
2021/06/17 03:26:28;;;;;;;24.50;17.80;;;;;;;16.71;83.15;100665.28;4921351;29;20298;-80
2021/06/17 03:28:56;;;;;;;27.02;18.92;;;;;;;16.57;83.09;100649.53;4902348;29;20053;-80
2021/06/17 03:31:25;;;;;;;27.38;18.55;;;;;;;16.75;83.07;100673.84;4906141;29;20089;-79
2021/06/17 03:33:52;;;;;;;28.45;18.10;;;;;;;16.71;83.54;100673.19;4915898;29;20076;-81
2021/06/17 03:36:19;;;;;;;26.13;18.05;;;;;;;16.70;83.17;100675.91;4922327;29;20055;-80
2021/06/17 03:38:47;;;;;;;26.58;19.65;;;;;;;16.52;82.95;100648.97;4920933;29;20056;-80
2021/06/17 03:41:15;;;;;;;25.98;17.98;;;;;;;16.41;82.77;100634.69;4916823;29;20051;-80
2021/06/17 03:43:45;;;;;;;23.40;17.08;;;;;;;16.67;82.16;100649.78;4912366;29;20104;-80
2021/06/17 03:46:11;;;;;;;22.83;16.27;;;;;;;16.48;81.26;100601.72;4910021;29;20061;-80
2021/06/17 03:48:42;;;;;;;29.45;18.45;;;;;;;16.75;82.49;100647.50;4903036;29;20052;-80
2021/06/17 03:51:11;;;;;;;26.08;19.02;;;;;;;16.70;82.20;100647.78;4913827;29;20063;-81
2021/06/17 03:53:39;;;;;;;28.02;18.23;;;;;;;15.98;82.05;100525.03;4934053;29;20054;-80
2021/06/17 03:56:05;;;;;;;26.17;18.17;;;;;;;16.74;81.71;100644.00;4940861;29;20059;-80
2021/06/17 03:58:31;;;;;;;26.52;18.10;;;;;;;16.81;81.41;100645.28;4924960;29;20047;-80
2021/06/17 04:00:58;;;;;;;25.50;17.63;;;;;;;16.82;81.40;100643.50;4916788;29;20052;-81
2021/06/17 04:03:28;;;;;;;26.15;17.73;;;;;;;16.92;82.00;100641.97;4922670;29;20127;-80
2021/06/17 04:05:59;;;;;;;24.27;18.33;;;;;;;16.87;81.37;100633.50;4917564;29;20055;-81
2021/06/17 04:08:31;;;;;;;23.95;17.90;;;;;;;16.89;80.81;100626.31;4920467;29;20485;-81
2021/06/17 04:11:00;;;;;;;25.10;18.25;;;;;;;16.80;80.96;100625.13;4916287;29;20052;-81
2021/06/17 04:13:29;;;;;;;22.00;17.33;;;;;;;16.94;81.06;100623.41;4901280;29;20140;-80
2021/06/17 04:15:58;;;;;;;21.95;16.23;;;;;;;16.94;81.17;100619.00;4901137;29;20048;-81
2021/06/17 04:18:25;;;;;;;22.05;16.67;;;;;;;17.07;81.27;100629.56;4902245;29;20048;-81
2021/06/17 04:20:54;;;;;;;23.65;18.08;;;;;;;16.93;82.19;100629.63;4909673;29;20540;-80
2021/06/17 04:23:21;;;;;;;21.77;16.23;;;;;;;16.94;82.29;100631.31;4920125;29;20059;-79
2021/06/17 04:25:49;;;;;;;19.05;13.48;;;;;;;16.93;82.30;100638.41;4910676;29;20049;-79
2021/06/17 04:28:16;;;;;;;14.95;12.98;;;;;;;16.97;82.46;100633.78;4910536;29;20093;-79
2021/06/17 04:30:44;;;;;;;14.43;11.70;;;;;;;17.02;81.53;100639.56;4910096;29;20425;-79
2021/06/17 04:33:12;;;;;;;13.82;11.93;;;;;;;16.90;81.05;100612.19;4918946;29;20052;-79
2021/06/17 04:35:42;;;;;;;12.30;11.00;;;;;;;16.71;80.79;100578.31;4908049;29;20493;-79
2021/06/17 04:38:13;;;;;;;15.57;10.70;;;;;;;16.76;81.05;100599.94;4912083;29;20053;-79
2021/06/17 04:40:40;;;;;;;15.15;9.68;;;;;;;16.98;80.72;100621.41;4917804;29;20047;-79
2021/06/17 04:43:08;;;;;;;11.40;10.00;;;;;;;16.80;81.02;100595.31;4919941;29;20099;-79
2021/06/17 04:45:35;;;;;;;9.38;8.05;;;;;;;16.79;79.98;100570.72;4939183;29;20481;-80
2021/06/17 04:48:08;;;;;;;10.40;7.35;;;;;;;16.69;79.72;100567.03;4916890;29;20056;-80
2021/06/17 04:50:36;;;;;;;8.30;7.50;;;;;;;16.60;80.97;100584.28;4910273;29;20107;-80
2021/06/17 04:53:05;;;;;;;9.05;7.38;;;;;;;16.90;80.55;100619.28;4905454;29;20048;-80
2021/06/17 04:55:32;;;;;;;7.60;6.20;;;;;;;16.83;79.61;100615.34;4902259;29;20045;-80
2021/06/17 04:57:59;;;;;;;8.23;5.20;;;;;;;16.78;79.60;100629.69;4917534;29;20052;-80
2021/06/17 05:00:25;;;;;;;7.93;5.30;;;;;;;16.79;79.25;100630.53;4927468;29;20116;-80
2021/06/17 05:02:52;;;;;;;5.95;4.63;;;;;;;16.70;79.07;100617.94;4930280;29;20052;-80
2021/06/17 05:05:18;;;;;;;6.32;4.88;;;;;;;16.85;78.85;100632.75;4932517;29;20052;-79
2021/06/17 05:12:57;;;;;;;5.53;3.95;;;;;;;16.49;78.78;100607.88;4932552;29;20434;-80
2021/06/17 05:15:23;;;;;;;7.30;4.05;;;;;;;16.79;78.86;100644.53;4908382;29;20105;-81
2021/06/17 05:17:49;;;;;;;7.13;4.03;;;;;;;16.82;78.56;100640.88;4902994;29;20494;-81
2021/06/17 05:20:16;;;;;;;4.10;3.67;;;;;;;16.57;77.65;100600.28;4917602;29;20060;-79
2021/06/17 05:22:44;;;;;;;4.80;3.80;;;;;;;16.79;78.04;100648.97;4912796;29;20100;-80
2021/06/17 05:25:12;;;;;;;6.63;3.55;;;;;;;16.78;78.22;100663.09;4919055;29;20052;-80
2021/06/17 05:27:38;;;;;;;5.68;3.55;;;;;;;16.50;78.58;100651.69;4901173;29;20049;-80
2021/06/17 05:30:07;;;;;;;4.57;3.22;;;;;;;16.33;78.07;100615.88;4911193;29;20052;-80
2021/06/17 05:32:34;;;;;;;3.97;3.10;;;;;;;16.76;77.60;100667.59;4914807;29;20060;-80
2021/06/17 05:35:00;;;;;;;6.65;4.07;;;;;;;16.71;77.60;100670.56;4909755;29;20420;-80
2021/06/17 05:37:27;;;;;;;4.25;3.67;;;;;;;16.89;77.03;100684.31;4909669;29;20047;-79
2021/06/17 05:39:53;;;;;;;4.93;3.72;;;;;;;16.23;77.47;100581.38;4907033;29;20064;-80
2021/06/17 05:42:19;;;;;;;5.28;3.75;;;;;;;16.89;77.75;100670.31;4913970;29;20048;-80
2021/06/17 05:44:45;;;;;;;5.35;3.58;;;;;;;16.94;77.31;100678.78;4918379;29;20408;-79
2021/06/17 05:47:13;;;;;;;4.28;3.88;;;;;;;16.95;76.59;100691.91;4915148;29;20048;-79
2021/06/17 05:49:39;;;;;;;6.15;4.00;;;;;;;16.85;76.82;100692.56;4914649;29;20059;-79
2021/06/17 05:52:06;;;;;;;5.22;3.42;;;;;;;16.80;76.84;100695.47;4907322;29;20044;-80
2021/06/17 05:54:32;;;;;;;7.43;4.30;;;;;;;16.63;76.63;100709.75;4914203;29;20048;-79
2021/06/17 05:56:59;;;;;;;5.75;3.67;;;;;;;16.86;76.87;100737.25;4916226;29;20120;-79
2021/06/17 05:59:25;;;;;;;7.15;4.50;;;;;;;16.85;77.33;100743.47;4932143;29;20056;-79
2021/06/17 06:01:51;;;;;;;6.18;4.68;;;;;;;16.93;77.10;100738.59;4913042;29;20052;-79
2021/06/17 06:04:17;;;;;;;8.10;3.92;;;;;;;16.90;76.87;100738.75;4907531;29;20424;-79
2021/06/17 06:06:43;;;;;;;5.38;4.45;;;;;;;16.85;77.24;100740.84;4914489;29;20068;-79
2021/06/17 06:09:09;;;;;;;6.00;4.60;;;;;;;16.84;77.07;100725.97;4930999;29;20530;-79
2021/06/17 06:11:36;;;;;;;6.10;4.78;;;;;;;16.62;77.72;100715.94;4924063;29;20052;-81
2021/06/17 06:14:03;;;;;;;6.63;4.63;;;;;;;16.87;77.60;100753.91;4904370;29;20056;-81
2021/06/17 06:16:29;;;;;;;7.50;4.90;;;;;;;16.89;77.50;100752.88;4902630;29;20052;-81
2021/06/17 06:18:56;;;;;;;5.38;4.72;;;;;;;16.65;77.90;100755.31;4901727;29;20045;-79
2021/06/17 06:21:23;;;;;;;6.18;5.43;;;;;;;16.64;77.98;100774.69;4906222;29;20071;-80
2021/06/17 06:23:49;;;;;;;5.95;5.30;;;;;;;16.47;77.94;100767.84;4920561;29;20071;-80
2021/06/17 06:26:15;;;;;;;5.60;4.95;;;;;;;16.73;77.30;100774.09;4920962;29;20047;-81
2021/06/17 06:28:41;;;;;;;7.40;5.38;;;;;;;16.75;77.07;100769.56;4920030;29;20507;-79
2021/06/17 06:31:08;;;;;;;6.85;5.00;;;;;;;16.77;76.38;100757.16;4914528;29;20072;-82
2021/06/17 06:33:35;;;;;;;8.15;5.05;;;;;;;16.84;76.57;100773.41;4903236;29;20055;-80
2021/06/17 06:36:01;;;;;;;7.53;5.07;;;;;;;17.00;75.40;100775.94;4916519;29;20048;-79
2021/06/17 06:38:27;;;;;;;6.05;4.95;;;;;;;17.03;75.33;100778.41;4919416;29;20060;-80
2021/06/17 06:40:54;;;;;;;8.13;5.63;;;;;;;17.04;74.78;100779.25;4914130;29;20056;-80
2021/06/17 06:43:20;;;;;;;7.55;5.65;;;;;;;16.90;75.29;100762.47;4920412;29;20055;-79
2021/06/17 06:45:46;;;;;;;6.63;4.90;;;;;;;16.92;75.36;100772.97;4928147;29;20048;-79
2021/06/17 06:48:13;;;;;;;6.88;5.25;;;;;;;17.00;75.49;100770.69;4901282;29;20052;-80
2021/06/17 06:50:39;;;;;;;6.38;5.57;;;;;;;16.74;75.06;100703.78;4923366;29;20178;-79
2021/06/17 06:53:07;;;;;;;10.15;6.15;;;;;;;17.32;74.51;100764.25;4901855;29;20067;-80
2021/06/17 06:55:33;;;;;;;6.93;5.45;;;;;;;17.11;73.73;100704.91;4917490;29;20045;-79
2021/06/17 06:58:00;;;;;;;7.07;5.53;;;;;;;17.66;73.45;100777.88;4927733;29;20100;-80
2021/06/17 07:00:27;;;;;;;9.13;6.22;;;;;;;17.72;72.58;100788.00;4920623;29;20132;-81
2021/06/17 07:02:53;;;;;;;7.18;5.85;;;;;;;17.43;72.92;100748.56;4931324;29;20032;-79
2021/06/17 07:05:19;;;;;;;7.80;6.15;;;;;;;17.50;72.59;100755.13;4909990;29;20061;-80
2021/06/17 07:07:45;;;;;;;7.80;5.50;;;;;;;17.59;72.43;100774.81;4920408;29;20052;-80
2021/06/17 07:10:12;;;;;;;8.15;6.38;;;;;;;17.54;72.74;100768.97;4920047;29;20482;-80
2021/06/17 07:12:39;;;;;;;6.72;5.55;;;;;;;17.61;71.99;100772.88;4911260;29;20052;-81
2021/06/17 07:15:06;;;;;;;7.03;5.65;;;;;;;17.57;72.37;100782.81;4916590;29;20048;-80
2021/06/17 07:17:32;;;;;;;8.05;5.50;;;;;;;17.60;72.01;100782.63;4918552;29;20047;-81
2021/06/17 07:19:59;;;;;;;7.22;5.93;;;;;;;17.47;72.16;100759.75;4920159;29;20532;-80
2021/06/17 07:22:25;;;;;;;6.97;5.70;;;;;;;17.37;72.60;100793.81;4895059;29;20403;-81
2021/06/17 07:24:55;;;;;;;6.72;5.72;;;;;;;17.11;72.76;100751.53;4918466;29;20053;-86
2021/06/17 07:27:23;;;;;;;15.07;7.03;;;;;;;17.34;73.82;100784.31;4919313;29;20044;-78
2021/06/17 07:29:52;;;;;;;12.35;6.70;;;;;;;17.46;72.83;100766.84;4921422;29;20524;-79
2021/06/17 07:32:19;;;;;;;10.13;6.93;;;;;;;17.68;72.18;100766.25;4915536;29;20124;-82
2021/06/17 07:34:46;;;;;;;9.15;5.78;;;;;;;17.64;72.04;100758.63;4909834;29;20056;-90
2021/06/17 07:37:14;;;;;;;7.95;5.68;;;;;;;17.60;71.34;100742.16;4909641;29;20132;-89
2021/06/17 07:39:43;;;;;;;5.90;4.95;;;;;;;17.77;71.06;100764.78;4941723;29;20066;-90
2021/06/17 07:42:10;;;;;;;6.78;5.50;;;;;;;17.45;70.85;100736.13;4951237;29;20079;-89
2021/06/17 07:44:37;;;;;;;11.00;5.97;;;;;;;17.63;71.27;100794.75;4958929;29;20103;-88
2021/06/17 07:47:03;;;;;;;10.88;6.05;;;;;;;17.23;72.29;100763.09;4963013;29;20058;-92
2021/06/17 07:49:29;;;;;;;8.93;6.35;;;;;;;17.38;72.42;100806.94;4962818;28;20071;-88
2021/06/17 07:51:55;;;;;;;7.13;5.72;;;;;;;17.39;72.39;100820.97;4940126;29;20052;-86
2021/06/17 07:54:22;;;;;;;9.15;6.05;;;;;;;17.07;71.95;100750.03;4940061;29;20055;-87
2021/06/17 07:56:48;;;;;;;7.47;6.03;;;;;;;17.25;72.35;100783.13;4944697;29;20048;-93
2021/06/17 07:59:18;;;;;;;8.75;6.28;;;;;;;17.28;71.76;100790.88;4951275;29;20058;-92
2021/06/17 08:01:45;;;;;;;9.00;6.45;;;;;;;17.10;71.84;100736.66;4951240;29;20062;-89
2021/06/17 08:04:14;;;;;;;7.53;5.80;;;;;;;17.60;71.80;100819.56;4948647;29;20102;-91
2021/06/17 08:06:55;;;;;;;11.10;7.13;;;;;;;17.58;71.95;100821.44;4946665;29;20111;-85
2021/06/17 08:09:23;;;;;;;8.75;6.88;;;;;;;17.54;71.37;100824.38;4947566;29;20051;-91
2021/06/17 08:11:53;;;;;;;7.75;5.88;;;;;;;17.22;71.36;100764.88;4948409;29;20048;-92
2021/06/17 08:14:24;;;;;;;8.43;6.70;;;;;;;17.23;71.02;100771.81;4953344;29;20042;-92
2021/06/17 08:16:52;;;;;;;8.07;7.03;;;;;;;17.58;71.07;100816.19;4964994;28;20047;-91
2021/06/17 08:19:28;;;;;;;8.40;6.45;;;;;;;17.44;70.53;100787.19;4981718;28;20035;-91
2021/06/17 08:21:59;;;;;;;8.20;6.13;;;;;;;17.78;70.42;100821.94;4959261;29;20051;-92
2021/06/17 08:24:26;;;;;;;11.27;6.60;;;;;;;17.52;70.26;100774.34;4951369;29;20113;-94
2021/06/17 08:26:52;;;;;;;8.73;6.70;;;;;;;17.52;70.12;100758.53;4967372;28;20123;-92
2021/06/17 08:29:19;;;;;;;9.00;6.60;;;;;;;17.56;70.17;100780.28;4971175;29;20106;-92
2021/06/17 08:31:47;;;;;;;8.52;6.35;;;;;;;17.84;70.66;100815.41;4970917;29;20035;-90
2021/06/17 08:34:15;;;;;;;7.80;6.15;;;;;;;18.00;69.93;100821.34;4945472;28;20050;-90
2021/06/17 08:36:47;;;;;;;7.00;6.30;;;;;;;17.79;70.24;100802.50;4962454;28;20040;-90
2021/06/17 08:39:14;;;;;;;7.80;6.40;;;;;;;17.74;70.47;100818.66;4951876;28;20047;-83
2021/06/17 08:41:43;;;;;;;7.53;6.53;;;;;;;17.73;70.48;100824.03;4977101;29;20027;-88
2021/06/17 08:44:10;;;;;;;9.13;6.80;;;;;;;17.54;70.64;100768.97;4962180;29;20055;-84
2021/06/17 08:46:41;;;;;;;8.32;6.50;;;;;;;17.85;70.36;100815.28;4957914;29;20409;-93
2021/06/17 08:49:11;;;;;;;7.75;6.65;;;;;;;17.70;70.44;100790.75;4946078;29;20067;-86
2021/06/17 08:51:41;;;;;;;8.18;7.25;;;;;;;17.79;70.71;100799.03;4948795;29;20071;-91
2021/06/17 08:54:09;;;;;;;8.65;7.03;;;;;;;17.78;70.71;100816.66;4946950;29;20052;-92
2021/06/17 08:56:37;;;;;;;9.85;7.15;;;;;;;17.61;70.43;100764.97;4933711;29;20055;-92
2021/06/17 08:59:29;;;;;;;9.38;7.28;;;;;;;18.10;69.91;100804.91;4943974;29;20067;-87
2021/06/17 09:01:57;;;;;;;7.78;6.10;;;;;;;17.56;69.17;100704.56;4942802;29;20134;-88
2021/06/17 09:04:26;;;;;;;9.50;7.22;;;;;;;18.13;69.88;100810.81;4942502;29;20124;-82
2021/06/17 09:07:21;;;;;;;11.77;7.38;;;;;;;18.05;69.13;100769.09;4942205;29;20047;-82
2021/06/17 09:09:48;;;;;;;11.43;8.38;;;;;;;18.66;68.49;100823.91;4960434;29;20072;-91
2021/06/17 09:12:18;;;;;;;7.10;6.38;;;;;;;18.88;67.49;100827.66;4967300;29;20047;-91
2021/06/17 09:14:54;;;;;;;9.45;7.88;;;;;;;18.87;67.39;100825.97;4969331;29;20062;-90
2021/06/17 09:17:20;;;;;;;8.25;7.25;;;;;;;18.85;67.19;100819.97;4968325;29;20055;-91
2021/06/17 09:19:48;;;;;;;10.02;7.72;;;;;;;18.69;68.06;100826.31;4950105;29;20059;-92
2021/06/17 09:22:17;;;;;;;8.88;6.93;;;;;;;17.99;68.62;100745.75;4968538;29;20051;-91
2021/06/17 09:24:46;;;;;;;8.25;6.80;;;;;;;18.58;68.16;100814.81;4967380;29;20043;-91
2021/06/17 09:27:25;;;;;;;9.73;6.75;;;;;;;18.53;68.43;100812.50;4963253;29;20055;-84
2021/06/17 09:29:54;;;;;;;9.00;7.80;;;;;;;18.80;67.53;100822.94;4965086;28;20051;-85
2021/06/17 09:32:32;;;;;;;10.68;8.15;;;;;;;19.26;64.78;100771.19;4946088;29;20051;-85
2021/06/17 09:35:00;;;;;;;8.75;7.60;;;;;;;19.66;64.87;100809.72;4962327;29;20070;-86
2021/06/17 09:37:34;;;;;;;9.13;7.32;;;;;;;19.78;63.96;100810.59;4961936;29;20047;-85
2021/06/17 09:40:33;;;;;;;9.57;7.18;;;;;;;19.96;63.49;100814.53;4951625;28;20063;-86
2021/06/17 09:43:11;;;;;;;9.52;7.55;;;;;;;20.09;62.75;100813.59;4956164;29;20058;-84
2021/06/17 09:46:00;;;;;;;8.48;7.57;;;;;;;19.60;63.32;100787.16;4967209;28;20078;-85
2021/06/17 09:48:45;;;;;;;9.30;7.57;;;;;;;19.39;63.73;100764.97;4953756;29;20043;-83
2021/06/17 09:51:43;;;;;;;8.85;7.28;;;;;;;19.46;64.78;100812.03;4945444;29;20047;-86
2021/06/17 09:54:40;;;;;;;8.55;7.70;;;;;;;19.43;64.67;100822.88;4955093;28;20460;-83
2021/06/17 09:57:10;;;;;;;9.25;8.13;;;;;;;19.39;64.57;100825.84;4945475;29;20044;-84
2021/06/17 09:59:49;;;;;;;10.02;8.60;;;;;;;19.30;65.17;100811.50;4961784;29;20047;-85
2021/06/17 10:02:25;;;;;;;10.10;7.20;;;;;;;19.01;64.82;100750.97;4960727;29;20449;-83
2021/06/17 10:05:23;;;;;;;11.10;8.25;;;;;;;19.26;64.79;100823.25;4961982;29;20047;-84
2021/06/17 10:07:51;;;;;;;9.40;7.50;;;;;;;19.43;65.07;100819.38;4943055;29;20047;-85
2021/06/17 10:10:22;;;;;;;12.70;8.85;;;;;;;19.54;64.28;100823.88;4944213;29;20123;-87
2021/06/17 10:12:49;;;;;;;9.95;8.93;;;;;;;19.42;64.01;100780.59;4952196;29;20051;-85
2021/06/17 10:15:17;;;;;;;9.82;7.28;;;;;;;20.38;62.16;100821.94;4954980;29;20069;-85
2021/06/17 10:17:43;;;;;;;8.93;7.90;;;;;;;20.69;61.04;100824.00;4927375;29;20075;-85
2021/06/17 10:20:12;;;;;;;8.90;8.05;;;;;;;20.72;60.37;100829.09;4943527;29;20047;-84
2021/06/17 10:22:57;;;;;;;11.73;8.65;;;;;;;20.76;59.94;100833.19;4964215;29;20515;-84
2021/06/17 10:25:26;;;;;;;9.60;8.23;;;;;;;20.71;60.03;100828.19;4964616;29;20518;-83
2021/06/17 10:28:03;;;;;;;8.80;7.25;;;;;;;20.68;60.42;100828.47;4961410;29;20051;-84
2021/06/17 10:30:45;;;;;;;7.60;6.13;;;;;;;20.86;59.71;100835.94;4962677;29;20039;-84
2021/06/17 10:33:39;;;;;;;7.45;6.68;;;;;;;20.81;59.83;100828.34;4924218;29;20048;-80
2021/06/17 10:36:21;;;;;;;6.50;5.70;;;;;;;21.11;59.11;100832.19;4946330;29;20054;-86
2021/06/17 10:39:12;;;;;;;7.43;5.82;;;;;;;21.28;58.23;100828.16;4962448;29;20062;-85
2021/06/17 10:41:49;;;;;;;6.40;5.60;;;;;;;21.02;59.02;100825.81;4961532;29;20043;-86
2021/06/17 10:44:55;;;;;;;8.40;6.60;;;;;;;20.89;59.13;100827.75;4962690;29;20051;-86
2021/06/17 10:47:42;;;;;;;6.20;4.93;;;;;;;20.54;60.86;100834.00;4937925;29;20466;-86
2021/06/17 10:50:42;;;;;;;9.98;5.53;;;;;;;20.11;61.11;100816.97;4926979;29;20072;-85
2021/06/17 10:53:33;;;;;;;7.78;5.05;;;;;;;20.27;61.19;100841.31;4960865;29;20054;-85
2021/06/17 10:56:21;;;;;;;8.55;5.22;;;;;;;20.48;60.05;100830.88;4962540;29;20043;-86
2021/06/17 10:59:06;;;;;;;7.80;5.25;;;;;;;20.61;59.85;100836.03;4961485;29;20558;-85
2021/06/17 11:01:38;;;;;;;8.75;5.45;;;;;;;20.47;60.05;100841.59;4944541;29;20044;-86
2021/06/17 11:04:10;;;;;;;8.00;5.35;;;;;;;20.33;60.76;100847.97;4950164;29;20036;-84
2021/06/17 11:06:52;;;;;;;6.57;4.07;;;;;;;20.52;60.08;100846.53;4943323;29;20043;-84
2021/06/17 11:09:36;;;;;;;6.80;5.50;;;;;;;20.95;59.04;100844.00;4974778;28;20062;-85
2021/06/17 11:12:16;;;;;;;8.43;4.72;;;;;;;21.42;57.49;100834.97;4978048;29;20115;-85
2021/06/17 11:14:50;;;;;;;8.40;4.53;;;;;;;21.77;56.69;100822.44;4976993;28;20051;-86
2021/06/17 11:17:29;;;;;;;7.55;4.85;;;;;;;22.52;54.67;100837.34;4966088;29;20075;-86
2021/06/17 11:20:08;;;;;;;5.47;4.90;;;;;;;21.87;55.27;100837.50;4963709;29;20058;-85
2021/06/17 11:22:38;;;;;;;7.45;5.10;;;;;;;21.73;56.19;100837.81;4961212;29;20047;-85
2021/06/17 11:25:18;;;;;;;7.13;4.60;;;;;;;22.36;54.85;100844.91;4946626;29;20081;-86
2021/06/17 11:27:59;;;;;;;8.77;5.30;;;;;;;22.42;54.87;100828.44;4966626;29;20113;-85
2021/06/17 11:30:44;;;;;;;7.30;5.25;;;;;;;22.82;53.52;100846.25;4964285;29;20043;-85
2021/06/17 11:35:58;;;;;;;7.05;5.10;;;;;;;21.67;55.62;100839.16;4954494;29;20043;-86
2021/06/17 11:38:30;;;;;;;6.10;4.57;;;;;;;21.35;56.86;100869.16;4963395;29;20485;-86
2021/06/17 11:41:01;;;;;;;6.20;4.10;;;;;;;21.53;55.95;100869.47;4953649;29;20050;-84
2021/06/17 11:43:29;;;;;;;6.97;5.22;;;;;;;21.74;55.72;100864.25;4956262;29;20039;-85
2021/06/17 11:45:57;;;;;;;7.55;5.15;;;;;;;21.56;55.96;100857.75;4959014;29;20044;-82
2021/06/17 11:48:24;;;;;;;7.22;4.63;;;;;;;21.66;55.33;100764.91;4955095;29;20044;-82
2021/06/17 11:50:53;;;;;;;6.25;4.40;;;;;;;22.39;53.75;100853.50;4957744;28;20036;-83
2021/06/17 11:53:25;;;;;;;7.20;4.47;;;;;;;21.96;54.79;100856.28;4957906;28;20031;-83
2021/06/17 11:55:56;;;;;;;6.95;3.60;;;;;;;22.03;55.56;100873.41;4964937;28;20054;-83
2021/06/17 11:58:29;;;;;;;7.25;3.60;;;;;;;22.54;53.87;100853.16;4978625;28;20042;-82